Time;durP1;ratioP1;P1;durP2;ratioP2;P2;SDS_P1;SDS_P2;PMS_P1;PMS_P2;Temp;Humidity;BMP_temperature;BMP_pressure;BME280_temperature;BME280_humidity;BME280_pressure;Samples;Min_cycle;Max_cycle;Signal;HPM_P1;HPM_P2
2023/09/28 00:02:52;;;;;;;1.30;1.13;;;18.10;99.90;;;;;;5093282;28;20055;-63
2023/09/28 00:05:21;;;;;;;0.20;0.20;;;18.10;99.90;;;;;;5093217;28;20445;-63
2023/09/28 00:07:49;;;;;;;1.27;0.80;;;18.30;99.90;;;;;;5093192;28;20083;-63
2023/09/28 00:10:16;;;;;;;0.80;0.80;;;18.20;99.90;;;;;;5093236;28;20055;-64
2023/09/28 00:12:47;;;;;;;0.88;0.85;;;18.30;99.90;;;;;;5093025;28;20065;-63
2023/09/28 00:15:13;;;;;;;0.28;0.28;;;18.30;99.90;;;;;;5093061;28;20040;-63
2023/09/28 00:17:39;;;;;;;1.23;1.08;;;18.20;99.90;;;;;;5093106;28;20071;-63
2023/09/28 00:20:13;;;;;;;1.23;1.13;;;18.00;99.90;;;;;;5092924;28;20127;-62
2023/09/28 00:22:41;;;;;;;0.45;0.45;;;18.10;99.90;;;;;;5092855;28;20047;-63
2023/09/28 00:25:10;;;;;;;0.43;0.38;;;18.10;99.90;;;;;;5091883;28;20048;-63
2023/09/28 00:27:37;;;;;;;0.63;0.63;;;17.90;99.90;;;;;;5092726;28;20491;-65
2023/09/28 00:30:06;;;;;;;1.17;0.75;;;17.90;99.90;;;;;;5092883;28;20048;-63
2023/09/28 00:32:33;;;;;;;0.47;0.47;;;17.80;99.90;;;;;;5092661;28;20044;-63
2023/09/28 00:34:59;;;;;;;0.88;0.73;;;17.80;99.90;;;;;;5092607;28;20074;-63
2023/09/28 00:37:25;;;;;;;0.75;0.75;;;18.10;99.90;;;;;;5092745;28;20052;-63
2023/09/28 00:39:54;;;;;;;0.75;0.75;;;17.90;99.90;;;;;;5092480;28;20125;-63
2023/09/28 00:42:21;;;;;;;0.90;0.73;;;18.00;99.90;;;;;;5092407;28;20581;-64
2023/09/28 00:44:46;;;;;;;0.52;0.52;;;17.80;99.90;;;;;;5092626;28;20055;-63
2023/09/28 00:47:13;;;;;;;0.82;0.82;;;17.80;99.90;;;;;;5092330;28;20048;-63
2023/09/28 00:49:38;;;;;;;2.47;0.77;;;17.90;99.90;;;;;;5092604;28;20055;-63
2023/09/28 00:52:07;;;;;;;1.25;1.15;;;17.60;99.90;;;;;;5092223;28;20044;-64
2023/09/28 00:54:33;;;;;;;0.65;0.65;;;17.70;99.90;;;;;;5092222;28;20165;-63
2023/09/28 00:57:00;;;;;;;0.70;0.70;;;18.00;99.90;;;;;;5092420;28;20127;-63
2023/09/28 00:59:26;;;;;;;2.33;0.50;;;18.10;99.90;;;;;;5091845;28;20556;-63
2023/09/28 01:01:54;;;;;;;0.77;0.77;;;17.60;99.90;;;;;;5091898;28;20151;-63
2023/09/28 01:04:22;;;;;;;0.77;0.63;;;17.60;99.90;;;;;;5092433;28;20052;-63
2023/09/28 01:06:48;;;;;;;1.67;1.33;;;17.90;99.90;;;;;;5092536;28;20090;-62
2023/09/28 01:09:15;;;;;;;2.67;1.60;;;17.70;99.90;;;;;;5092469;28;20075;-62
2023/09/28 01:11:42;;;;;;;0.85;0.85;;;17.90;99.90;;;;;;5092414;28;20051;-63
2023/09/28 01:14:08;;;;;;;3.05;0.93;;;17.90;99.90;;;;;;5092448;28;20059;-63
2023/09/28 01:16:33;;;;;;;0.55;0.55;;;17.60;99.90;;;;;;5092362;28;20051;-63
2023/09/28 01:18:59;;;;;;;3.17;0.88;;;17.50;99.90;;;;;;5092410;28;20045;-62
2023/09/28 01:21:25;;;;;;;3.03;0.70;;;17.60;99.90;;;;;;5092516;28;20127;-63
2023/09/28 01:23:51;;;;;;;0.65;0.65;;;17.80;99.90;;;;;;5092438;28;20047;-63
2023/09/28 01:26:17;;;;;;;1.58;1.30;;;17.40;99.90;;;;;;5092488;28;20052;-63
2023/09/28 01:28:43;;;;;;;0.90;0.90;;;17.90;99.90;;;;;;5092071;28;20484;-62
2023/09/28 01:31:08;;;;;;;0.75;0.75;;;17.40;99.90;;;;;;5091858;28;20052;-62
2023/09/28 01:33:34;;;;;;;1.08;1.05;;;17.90;99.90;;;;;;5092114;28;20051;-63
2023/09/28 01:36:00;;;;;;;0.98;0.98;;;17.70;99.90;;;;;;5091639;28;20105;-62
2023/09/28 01:38:34;;;;;;;0.73;0.70;;;17.40;99.90;;;;;;5092099;28;20147;-62
2023/09/28 01:41:00;;;;;;;0.75;0.75;;;17.60;99.90;;;;;;5092046;28;20040;-62
2023/09/28 01:43:26;;;;;;;0.43;0.40;;;17.60;99.90;;;;;;5090646;28;20105;-63
2023/09/28 01:45:52;;;;;;;0.20;0.20;;;17.70;99.90;;;;;;5091922;28;20050;-63
2023/09/28 01:48:18;;;;;;;0.38;0.35;;;17.60;99.90;;;;;;5091948;28;20056;-63
2023/09/28 01:50:44;;;;;;;5.13;1.48;;;17.60;99.90;;;;;;5091920;28;20047;-63
2023/09/28 01:53:10;;;;;;;0.80;0.80;;;17.50;99.90;;;;;;5091867;28;20085;-62
2023/09/28 01:55:36;;;;;;;1.27;1.10;;;17.60;99.90;;;;;;5091715;28;20051;-62
2023/09/28 01:58:04;;;;;;;0.98;0.60;;;17.60;99.90;;;;;;5091693;28;20044;-63
2023/09/28 02:00:30;;;;;;;0.65;0.65;;;17.60;99.90;;;;;;5091700;28;20480;-62
2023/09/28 02:02:56;;;;;;;0.80;0.80;;;17.10;99.90;;;;;;5090093;28;20059;-63
2023/09/28 02:05:22;;;;;;;0.47;0.47;;;17.40;99.90;;;;;;5091721;28;20063;-63
2023/09/28 02:07:49;;;;;;;0.50;0.50;;;17.30;99.90;;;;;;5091691;28;20528;-62
2023/09/28 02:10:15;;;;;;;0.73;0.73;;;17.20;99.90;;;;;;5091623;28;20059;-63
2023/09/28 02:12:45;;;;;;;0.52;0.52;;;17.40;99.90;;;;;;5091621;28;20040;-62
2023/09/28 02:15:14;;;;;;;0.65;0.65;;;17.30;99.90;;;;;;5091654;28;20097;-62
2023/09/28 02:17:41;;;;;;;1.55;1.00;;;17.30;99.90;;;;;;5090473;28;20056;-62
2023/09/28 02:20:09;;;;;;;0.35;0.35;;;17.40;99.90;;;;;;5091201;28;20515;-63
2023/09/28 02:22:43;;;;;;;0.70;0.70;;;17.20;99.90;;;;;;5091447;28;20047;-62
2023/09/28 02:25:17;;;;;;;0.63;0.60;;;17.10;99.90;;;;;;5091302;28;20617;-62
2023/09/28 02:27:43;;;;;;;0.93;0.80;;;17.40;99.90;;;;;;5091562;28;20476;-62
2023/09/28 02:30:14;;;;;;;0.63;0.63;;;17.30;99.90;;;;;;5091143;28;20530;-62
2023/09/28 02:32:43;;;;;;;0.30;0.30;;;16.80;99.90;;;;;;5091581;28;20126;-63
2023/09/28 02:35:10;;;;;;;0.40;0.40;;;17.20;99.90;;;;;;5091318;28;20535;-62
2023/09/28 02:37:36;;;;;;;1.92;1.17;;;16.60;99.90;;;;;;5091382;28;20116;-62
2023/09/28 02:40:06;;;;;;;0.85;0.85;;;16.80;99.90;;;;;;5091384;28;20576;-63
2023/09/28 02:42:34;;;;;;;0.65;0.65;;;16.90;99.90;;;;;;5091307;28;20055;-62
2023/09/28 02:45:00;;;;;;;0.63;0.63;;;16.50;99.90;;;;;;5090302;28;20480;-62
2023/09/28 02:47:27;;;;;;;0.90;0.65;;;16.70;99.90;;;;;;5091359;28;20051;-63
2023/09/28 02:49:54;;;;;;;0.47;0.47;;;16.70;99.90;;;;;;5094207;28;20047;-62
2023/09/28 02:52:20;;;;;;;0.88;0.88;;;16.60;99.90;;;;;;5095101;28;20047;-62
2023/09/28 02:54:46;;;;;;;1.02;0.63;;;17.00;99.90;;;;;;5094987;28;20051;-62
2023/09/28 02:57:13;;;;;;;1.20;0.93;;;17.10;99.90;;;;;;5094014;28;20127;-63
2023/09/28 02:59:38;;;;;;;1.02;0.65;;;16.70;99.90;;;;;;5094912;28;20051;-62
2023/09/28 03:02:05;;;;;;;1.48;1.25;;;16.90;99.90;;;;;;5094753;28;20060;-62
2023/09/28 03:04:33;;;;;;;0.50;0.50;;;17.00;99.90;;;;;;5094838;28;20078;-62
2023/09/28 03:06:59;;;;;;;0.45;0.45;;;16.70;99.90;;;;;;5094761;28;20059;-62
2023/09/28 03:09:27;;;;;;;0.45;0.45;;;17.00;99.90;;;;;;5094813;28;20396;-62
2023/09/28 03:11:54;;;;;;;0.47;0.47;;;17.20;99.90;;;;;;5094775;28;20097;-62
2023/09/28 03:14:20;;;;;;;1.02;0.68;;;16.90;99.90;;;;;;5093642;28;20051;-61
2023/09/28 03:16:46;;;;;;;0.77;0.77;;;16.80;99.90;;;;;;5094851;28;20507;-63
2023/09/28 03:19:11;;;;;;;1.63;0.88;;;16.80;99.90;;;;;;5094370;28;20051;-62
2023/09/28 03:21:39;;;;;;;;;;;17.10;99.90;;;;;;5094904;28;20063;-62
2023/09/28 03:24:08;;;;;;;1.23;1.13;;;17.00;99.90;;;;;;5094476;28;19924;-62
2023/09/28 03:26:33;;;;;;;0.40;0.40;;;17.20;99.90;;;;;;5094135;28;20477;-62
2023/09/28 03:28:59;;;;;;;1.52;0.85;;;16.70;99.90;;;;;;5094330;28;20051;-62
2023/09/28 03:31:27;;;;;;;;;;;16.60;99.90;;;;;;5094756;28;20404;-62
2023/09/28 03:33:58;;;;;;;0.63;0.63;;;16.90;99.90;;;;;;5094235;28;19972;-64
2023/09/28 03:36:24;;;;;;;0.60;0.60;;;16.80;99.90;;;;;;5094393;28;20051;-62
2023/09/28 03:38:50;;;;;;;0.73;0.73;;;16.40;99.90;;;;;;5094179;28;20040;-62
2023/09/28 03:41:17;;;;;;;0.40;0.40;;;16.70;99.90;;;;;;5094214;28;20047;-62
2023/09/28 03:43:44;;;;;;;0.38;0.38;;;16.70;99.90;;;;;;5094094;28;20071;-63
2023/09/28 03:46:10;;;;;;;0.80;0.80;;;16.40;99.90;;;;;;5094075;28;20059;-62
2023/09/28 03:48:36;;;;;;;1.08;0.95;;;16.50;99.90;;;;;;5094047;28;20067;-62
2023/09/28 03:51:02;;;;;;;0.88;0.88;;;16.50;99.90;;;;;;5094184;28;20460;-62
2023/09/28 03:53:27;;;;;;;;;;;16.30;99.90;;;;;;5093310;28;20114;-62
2023/09/28 03:55:54;;;;;;;0.52;0.52;;;16.10;99.90;;;;;;5093970;28;19923;-63
2023/09/28 03:58:20;;;;;;;2.10;1.77;;;16.70;99.90;;;;;;5093865;28;20044;-62
2023/09/28 04:00:46;;;;;;;1.02;1.00;;;16.20;99.90;;;;;;5093684;28;20455;-62
2023/09/28 04:03:12;;;;;;;0.93;0.93;;;15.90;99.90;;;;;;5093525;28;20162;-62
2023/09/28 04:05:38;;;;;;;;;;;16.30;99.90;;;;;;5093816;28;20063;-62
2023/09/28 04:08:05;;;;;;;1.55;1.42;;;15.90;99.90;;;;;;5093648;28;20364;-63
2023/09/28 04:10:33;;;;;;;0.75;0.75;;;16.70;99.90;;;;;;5093621;28;20047;-63
2023/09/28 04:13:01;;;;;;;1.02;1.02;;;16.30;99.90;;;;;;5093600;28;20047;-63
2023/09/28 04:15:27;;;;;;;3.00;0.95;;;15.90;99.90;;;;;;5093507;28;20123;-63
2023/09/28 04:17:52;;;;;;;1.20;1.05;;;16.00;99.90;;;;;;5093104;28;20118;-62
2023/09/28 04:20:18;;;;;;;;;;;16.20;99.90;;;;;;5093884;28;20062;-63
2023/09/28 04:22:44;;;;;;;1.02;0.80;;;16.10;99.90;;;;;;5093291;28;19920;-63
2023/09/28 04:25:10;;;;;;;;;;;16.20;99.90;;;;;;5094091;28;20040;-62
2023/09/28 04:27:35;;;;;;;1.27;1.17;;;16.40;99.90;;;;;;5093532;28;20010;-62
2023/09/28 04:30:01;;;;;;;;;;;16.40;99.90;;;;;;5092486;28;20468;-64
2023/09/28 04:32:27;;;;;;;0.65;0.43;;;16.20;99.90;;;;;;5093288;28;19923;-63
2023/09/28 04:34:52;;;;;;;;;;;15.90;99.90;;;;;;5093559;28;20050;-62
2023/09/28 04:37:19;;;;;;;0.60;0.60;;;16.30;99.90;;;;;;5093120;28;19932;-63
2023/09/28 04:39:45;;;;;;;1.10;1.00;;;16.00;99.90;;;;;;5093006;28;20052;-62
2023/09/28 04:42:12;;;;;;;0.57;0.57;;;16.50;99.90;;;;;;5092909;28;20040;-62
2023/09/28 04:44:39;;;;;;;0.30;0.30;;;16.50;99.90;;;;;;5093025;28;20138;-63
2023/09/28 04:47:05;;;;;;;0.88;0.63;;;16.10;99.90;;;;;;5092921;28;20518;-62
2023/09/28 04:49:30;;;;;;;;;;;16.30;99.90;;;;;;5093356;28;20079;-62
2023/09/28 04:51:56;;;;;;;0.50;0.50;;;16.20;99.90;;;;;;5092875;28;19920;-62
2023/09/28 04:54:22;;;;;;;;;;;16.40;99.90;;;;;;5093374;28;20399;-62
2023/09/28 04:56:47;;;;;;;3.70;0.90;;;16.00;99.90;;;;;;5092992;28;19928;-62
2023/09/28 04:59:13;;;;;;;;;;;15.90;99.90;;;;;;5093372;28;20128;-63
2023/09/28 05:01:38;;;;;;;0.30;0.30;;;16.40;99.90;;;;;;5092274;28;19974;-63
2023/09/28 05:04:04;;;;;;;;;;;15.90;99.90;;;;;;5093003;28;20116;-63
2023/09/28 05:06:30;;;;;;;0.77;0.77;;;15.90;99.90;;;;;;5092554;28;19927;-62
2023/09/28 05:08:56;;;;;;;;;;;15.90;99.90;;;;;;5093114;28;20047;-62
2023/09/28 05:11:22;;;;;;;0.93;0.93;;;16.20;99.90;;;;;;5092227;28;20276;-62
2023/09/28 05:13:47;;;;;;;;;;;16.30;99.90;;;;;;5092897;28;20047;-62
2023/09/28 05:16:13;;;;;;;0.68;0.68;;;16.00;99.90;;;;;;5092354;28;19919;-62
2023/09/28 05:18:39;;;;;;;;;;;15.80;99.90;;;;;;5092722;28;20047;-63
2023/09/28 05:21:05;;;;;;;0.32;0.32;;;15.90;99.90;;;;;;5092282;28;19923;-63
2023/09/28 05:23:31;;;;;;;0.30;0.30;;;15.70;99.90;;;;;;5091761;28;20496;-62
2023/09/28 05:25:56;;;;;;;;;;;15.80;99.90;;;;;;5091176;28;20048;-63
2023/09/28 05:28:22;;;;;;;0.40;0.40;;;16.00;99.90;;;;;;5092008;28;19931;-63
2023/09/28 05:30:48;;;;;;;3.40;1.40;;;15.80;99.90;;;;;;5091882;28;20077;-62
2023/09/28 05:33:13;;;;;;;;;;;15.90;99.90;;;;;;5092303;28;20047;-62
2023/09/28 05:35:40;;;;;;;0.20;0.20;;;15.50;99.90;;;;;;5091947;28;19930;-63
2023/09/28 05:38:05;;;;;;;0.43;0.43;;;15.70;99.90;;;;;;5091954;28;20044;-64
2023/09/28 05:40:31;;;;;;;;;;;15.80;99.90;;;;;;5092396;28;20044;-62
2023/09/28 05:42:57;;;;;;;0.13;0.13;;;15.90;99.90;;;;;;5091853;28;19920;-62
2023/09/28 05:45:22;;;;;;;;;;;15.40;99.90;;;;;;5092376;28;20052;-62
2023/09/28 05:47:48;;;;;;;0.47;0.20;;;15.70;99.90;;;;;;5091916;28;19924;-62
2023/09/28 05:50:14;;;;;;;;;;;15.30;99.90;;;;;;5092277;28;20506;-62
2023/09/28 05:52:40;;;;;;;3.72;1.15;;;15.60;99.90;;;;;;5091862;28;20260;-62
2023/09/28 05:55:06;;;;;;;0.30;0.30;;;15.40;99.90;;;;;;5091785;28;20131;-62
2023/09/28 05:57:32;;;;;;;0.20;0.20;;;15.90;99.90;;;;;;5091750;28;20056;-63
2023/09/28 05:59:58;;;;;;;5.38;0.45;;;15.70;99.90;;;;;;5091977;28;20055;-62
2023/09/28 06:02:24;;;;;;;;;;;15.70;99.90;;;;;;5092044;28;20499;-62
2023/09/28 06:04:50;;;;;;;0.10;0.10;;;15.70;99.90;;;;;;5090688;28;19931;-63
2023/09/28 06:07:15;;;;;;;;;;;15.70;99.90;;;;;;5091797;28;20094;-63
2023/09/28 06:09:41;;;;;;;3.30;1.30;;;15.60;99.90;;;;;;5091666;28;19920;-63
2023/09/28 06:12:07;;;;;;;;;;;15.70;99.90;;;;;;5092061;28;20101;-62
2023/09/28 06:14:33;;;;;;;0.35;0.30;;;15.90;99.90;;;;;;5091554;28;20325;-63
2023/09/28 06:17:00;;;;;;;2.85;0.73;;;16.40;99.90;;;;;;5091577;28;20044;-62
2023/09/28 06:19:27;;;;;;;0.40;0.40;;;15.90;99.90;;;;;;5091492;28;20135;-63
2023/09/28 06:21:54;;;;;;;0.75;0.38;;;16.40;99.90;;;;;;5087738;28;20044;-66
2023/09/28 06:24:20;;;;;;;0.70;0.45;;;16.10;99.90;;;;;;5092690;28;20078;-63
2023/09/28 06:26:46;;;;;;;0.47;0.47;;;16.30;99.90;;;;;;5093449;28;20036;-62
2023/09/28 06:29:12;;;;;;;;;;;16.30;99.90;;;;;;5094751;28;20093;-62
2023/09/28 06:31:38;;;;;;;0.00;0.00;;;16.40;99.90;;;;;;5094801;28;19923;-61
2023/09/28 06:34:05;;;;;;;0.30;0.30;;;16.40;99.90;;;;;;5094916;28;20393;-62
2023/09/28 06:36:31;;;;;;;0.15;0.15;;;16.20;99.90;;;;;;5093622;28;20055;-62
2023/09/28 06:38:57;;;;;;;5.50;0.65;;;16.40;99.90;;;;;;5094194;28;20052;-62
2023/09/28 06:41:22;;;;;;;;;;;16.50;99.90;;;;;;5094078;28;20048;-62
2023/09/28 06:43:48;;;;;;;0.10;0.10;;;16.50;99.90;;;;;;5094617;28;20011;-62
2023/09/28 06:46:14;;;;;;;0.52;0.38;;;16.60;99.90;;;;;;5094122;28;20548;-66
2023/09/28 06:48:40;;;;;;;0.10;0.10;;;16.40;99.90;;;;;;5094757;28;20043;-63
2023/09/28 06:51:06;;;;;;;3.30;0.40;;;16.80;99.90;;;;;;5094496;28;20054;-63
2023/09/28 06:53:32;;;;;;;;;;;16.70;99.90;;;;;;5094200;28;20040;-62
2023/09/28 06:56:01;;;;;;;0.47;0.47;;;16.70;99.90;;;;;;5094431;28;19924;-62
2023/09/28 06:58:27;;;;;;;0.98;0.98;;;16.60;99.90;;;;;;5094379;28;20079;-62
2023/09/28 07:00:53;;;;;;;0.28;0.28;;;16.50;99.90;;;;;;5094168;28;20464;-63
2023/09/28 07:03:19;;;;;;;0.85;0.45;;;16.20;99.90;;;;;;5094193;28;20091;-62
2023/09/28 07:05:45;;;;;;;0.40;0.30;;;16.50;99.90;;;;;;5094182;28;20040;-65
2023/09/28 07:08:12;;;;;;;;;;;16.50;99.90;;;;;;5101651;28;20055;-62
2023/09/28 07:10:38;;;;;;;1.38;0.30;;;16.50;99.90;;;;;;5093019;28;20006;-62
2023/09/28 07:13:05;;;;;;;0.80;0.80;;;17.00;99.90;;;;;;5093065;28;20388;-66
2023/09/28 07:15:35;;;;;;;0.28;0.28;;;16.70;99.90;;;;;;5094378;28;20044;-66
2023/09/28 07:18:01;;;;;;;0.68;0.50;;;16.80;99.90;;;;;;5094259;28;20105;-65
2023/09/28 07:20:27;;;;;;;0.38;0.20;;;16.80;99.90;;;;;;5094308;28;20090;-63
2023/09/28 07:22:53;;;;;;;0.30;0.30;;;17.00;99.90;;;;;;5093970;28;20103;-64
2023/09/28 07:25:19;;;;;;;;;;;16.90;99.90;;;;;;5094614;28;20044;-62
2023/09/28 07:27:47;;;;;;;0.10;0.10;;;17.10;99.90;;;;;;5094270;28;19927;-65
2023/09/28 07:30:14;;;;;;;0.17;0.17;;;17.40;99.90;;;;;;5093978;28;20090;-63
2023/09/28 07:32:40;;;;;;;1.08;1.08;;;17.20;99.90;;;;;;5094057;28;20086;-64
2023/09/28 07:35:09;;;;;;;0.10;0.10;;;17.50;99.90;;;;;;5093729;28;20090;-65
2023/09/28 07:37:35;;;;;;;7.00;1.30;;;17.30;99.90;;;;;;5092389;28;20413;-62
2023/09/28 07:40:01;;;;;;;6.63;1.30;;;17.50;99.90;;;;;;5093660;28;20519;-64
2023/09/28 07:42:27;;;;;;;1.45;0.60;;;17.20;99.90;;;;;;5093690;28;20047;-63
2023/09/28 07:44:53;;;;;;;0.13;0.13;;;17.20;99.90;;;;;;5093686;28;20105;-65
2023/09/28 07:47:19;;;;;;;2.00;1.65;;;17.20;99.90;;;;;;5093837;28;20043;-65
2023/09/28 07:49:46;;;;;;;3.05;1.75;;;17.60;99.90;;;;;;5093517;28;20052;-63
2023/09/28 07:52:12;;;;;;;0.85;0.85;;;17.40;99.90;;;;;;5093322;28;20085;-63
2023/09/28 07:54:37;;;;;;;2.53;0.68;;;17.60;99.90;;;;;;5093100;28;20048;-65
2023/09/28 07:57:04;;;;;;;0.17;0.17;;;17.20;99.90;;;;;;5092545;28;20052;-65
2023/09/28 07:59:36;;;;;;;0.47;0.30;;;17.90;99.90;;;;;;5093484;28;20055;-62
2023/09/28 08:02:08;;;;;;;1.67;0.98;;;17.40;99.90;;;;;;5093020;28;20135;-62
2023/09/28 08:04:34;;;;;;;21.65;1.20;;;17.70;99.90;;;;;;5091948;28;20104;-65
2023/09/28 08:06:59;;;;;;;9.35;0.85;;;17.60;99.90;;;;;;5092751;28;20134;-64
2023/09/28 08:09:25;;;;;;;0.93;0.63;;;17.50;99.90;;;;;;5093110;28;20051;-62
2023/09/28 08:11:52;;;;;;;1.67;1.58;;;17.70;99.90;;;;;;5093241;28;20085;-65
2023/09/28 08:14:18;;;;;;;0.50;0.50;;;17.40;99.90;;;;;;5092842;28;20480;-64
2023/09/28 08:16:44;;;;;;;0.30;0.30;;;17.60;99.90;;;;;;5093033;28;20044;-61
2023/09/28 08:19:10;;;;;;;0.10;0.10;;;18.00;99.90;;;;;;5092986;28;20094;-63
2023/09/28 08:21:38;;;;;;;4.78;1.27;;;17.70;99.90;;;;;;5092394;28;20044;-62
2023/09/28 08:24:08;;;;;;;0.13;0.13;;;17.70;99.90;;;;;;5092808;28;20076;-64
2023/09/28 08:26:34;;;;;;;3.08;0.82;;;18.10;99.90;;;;;;5092832;28;20134;-62
2023/09/28 08:29:01;;;;;;;0.47;0.47;;;18.20;99.90;;;;;;5090752;28;20147;-63
2023/09/28 08:31:27;;;;;;;0.75;0.65;;;18.20;99.90;;;;;;5092712;28;20097;-63
2023/09/28 08:33:53;;;;;;;1.65;1.35;;;17.80;99.90;;;;;;5092856;28;20135;-61
2023/09/28 08:36:21;;;;;;;0.50;0.50;;;18.00;99.90;;;;;;5092313;28;20043;-63
2023/09/28 08:38:47;;;;;;;0.38;0.35;;;17.90;99.90;;;;;;5092464;28;20100;-63
2023/09/28 08:41:18;;;;;;;0.10;0.10;;;18.00;99.90;;;;;;5092543;28;20105;-63
2023/09/28 08:43:52;;;;;;;6.68;3.03;;;18.20;99.90;;;;;;5092675;28;20051;-63
2023/09/28 08:46:20;;;;;;;1.10;0.17;;;17.80;99.90;;;;;;5091419;28;20125;-63
2023/09/28 08:48:47;;;;;;;0.13;0.13;;;18.30;99.90;;;;;;5092611;28;20088;-63
2023/09/28 08:51:13;;;;;;;0.40;0.40;;;18.40;99.90;;;;;;5090835;28;20430;-63
2023/09/28 08:53:40;;;;;;;1.15;0.63;;;18.50;99.90;;;;;;5092586;28;20051;-63
2023/09/28 08:56:07;;;;;;;1.58;0.68;;;18.50;99.90;;;;;;5092230;28;20488;-63
2023/09/28 08:58:37;;;;;;;1.17;0.80;;;18.60;99.90;;;;;;5092560;28;20051;-63
2023/09/28 09:01:04;;;;;;;0.10;0.10;;;18.10;99.90;;;;;;5092133;28;20553;-64
2023/09/28 09:03:33;;;;;;;0.20;0.20;;;18.30;99.90;;;;;;5092211;28;20056;-62
2023/09/28 09:05:59;;;;;;;0.90;0.80;;;18.50;99.90;;;;;;5091849;28;20059;-63
2023/09/28 09:08:27;;;;;;;0.60;0.50;;;18.70;99.90;;;;;;5092190;28;20055;-62
2023/09/28 09:10:54;;;;;;;0.45;0.45;;;18.50;99.90;;;;;;5091242;28;20044;-61
2023/09/28 09:13:20;;;;;;;3.95;0.32;;;18.30;99.90;;;;;;5091625;28;20434;-61
2023/09/28 09:15:46;;;;;;;0.57;0.57;;;18.50;99.90;;;;;;5091192;28;20096;-62
2023/09/28 09:18:24;;;;;;;10.82;0.60;;;18.40;99.90;;;;;;5089982;28;20051;-62
2023/09/28 09:20:50;;;;;;;8.02;1.73;;;18.30;99.90;;;;;;5091950;28;20080;-63
2023/09/28 09:23:17;;;;;;;1.60;0.50;;;18.60;99.90;;;;;;5091740;28;20050;-61
2023/09/28 09:25:44;;;;;;;2.28;1.30;;;18.30;99.90;;;;;;5091666;28;20048;-63
2023/09/28 09:28:28;;;;;;;0.35;0.30;;;18.60;99.90;;;;;;5090506;28;20086;-62
2023/09/28 09:30:55;;;;;;;5.57;1.00;;;18.60;99.90;;;;;;5087486;28;20521;-64
2023/09/28 09:33:22;;;;;;;0.20;0.20;;;18.70;99.90;;;;;;5083802;28;20110;-62
2023/09/28 09:35:49;;;;;;;1.55;0.60;;;18.30;99.90;;;;;;5090963;28;20052;-63
2023/09/28 09:38:15;;;;;;;0.40;0.40;;;18.20;99.90;;;;;;5090897;28;20075;-63
2023/09/28 09:40:41;;;;;;;3.72;0.38;;;18.40;99.90;;;;;;5091202;28;20484;-63
2023/09/28 09:43:08;;;;;;;1.25;0.55;;;18.50;99.90;;;;;;5091398;28;20036;-62
2023/09/28 09:45:38;;;;;;;3.85;0.38;;;18.50;99.90;;;;;;5090683;28;20044;-62
2023/09/28 09:48:06;;;;;;;0.68;0.65;;;18.40;99.90;;;;;;5091255;28;20040;-62
2023/09/28 09:50:35;;;;;;;0.20;0.20;;;18.70;99.90;;;;;;5089838;28;20040;-62
2023/09/28 09:53:03;;;;;;;0.10;0.10;;;18.50;99.90;;;;;;5090084;28;20094;-62
2023/09/28 09:55:29;;;;;;;0.85;0.73;;;18.70;99.90;;;;;;5089998;28;20176;-65
2023/09/28 09:57:59;;;;;;;1.40;0.77;;;18.30;99.90;;;;;;5091125;28;20081;-62
2023/09/28 10:00:31;;;;;;;0.10;0.10;;;18.70;99.90;;;;;;5090714;28;20055;-63
2023/09/28 10:02:58;;;;;;;0.52;0.38;;;18.70;99.90;;;;;;5089466;28;20055;-63
2023/09/28 10:05:27;;;;;;;0.03;0.03;;;18.60;99.90;;;;;;5090727;28;20503;-62
2023/09/28 10:07:55;;;;;;;0.50;0.47;;;19.20;99.90;;;;;;5089807;28;20127;-62
2023/09/28 10:10:22;;;;;;;0.45;0.28;;;18.90;99.90;;;;;;5090967;28;20055;-62
2023/09/28 10:12:49;;;;;;;0.10;0.10;;;19.10;99.90;;;;;;5091691;28;20055;-61
2023/09/28 10:15:16;;;;;;;1.58;1.00;;;19.20;99.90;;;;;;5091743;28;20480;-62
2023/09/28 10:17:44;;;;;;;0.10;0.10;;;19.30;99.90;;;;;;5091816;28;20137;-63
2023/09/28 10:20:13;;;;;;;0.30;0.30;;;19.20;99.90;;;;;;5091692;28;20052;-62
2023/09/28 10:22:44;;;;;;;0.57;0.20;;;19.60;99.90;;;;;;5091544;28;20048;-62
2023/09/28 10:25:15;;;;;;;0.20;0.20;;;19.80;99.90;;;;;;5091426;28;20044;-63
2023/09/28 10:27:44;;;;;;;1.10;0.47;;;19.40;99.90;;;;;;5091501;28;20044;-62
2023/09/28 10:30:22;;;;;;;0.77;0.77;;;19.50;99.90;;;;;;5091453;28;20131;-62
2023/09/28 10:32:51;;;;;;;1.45;1.35;;;19.50;99.90;;;;;;5091483;28;20499;-63
2023/09/28 10:35:19;;;;;;;0.82;0.55;;;19.40;99.90;;;;;;5090114;28;20544;-63
2023/09/28 10:38:15;;;;;;;0.10;0.10;;;19.50;99.90;;;;;;5091403;28;20052;-62
2023/09/28 10:40:42;;;;;;;0.10;0.10;;;19.60;99.90;;;;;;5091127;28;20552;-62
2023/09/28 10:43:11;;;;;;;1.58;0.65;;;19.80;99.90;;;;;;5091286;28;20055;-63
2023/09/28 10:45:37;;;;;;;1.05;0.80;;;19.50;99.90;;;;;;5091356;28;20051;-62
2023/09/28 10:48:09;;;;;;;0.20;0.20;;;19.40;99.90;;;;;;5091372;28;20122;-63
2023/09/28 10:50:38;;;;;;;0.20;0.20;;;19.40;99.90;;;;;;5091541;28;20059;-62
2023/09/28 10:53:04;;;;;;;0.32;0.32;;;19.60;99.90;;;;;;5091483;28;20393;-63
2023/09/28 10:55:30;;;;;;;0.57;0.30;;;19.70;99.90;;;;;;5090993;28;20051;-63
2023/09/28 10:58:03;;;;;;;0.40;0.40;;;19.40;99.90;;;;;;5091256;28;20051;-63
2023/09/28 11:00:31;;;;;;;2.13;0.82;;;19.60;99.90;;;;;;5090195;28;20392;-62
2023/09/28 11:02:58;;;;;;;1.23;0.65;;;19.60;99.90;;;;;;5091059;28;20044;-64
2023/09/28 11:05:25;;;;;;;0.13;0.13;;;19.30;99.90;;;;;;5091170;28;20169;-63
2023/09/28 11:07:51;;;;;;;0.65;0.60;;;19.80;99.90;;;;;;5091128;28;20372;-62
2023/09/28 11:10:17;;;;;;;0.22;0.22;;;19.80;99.90;;;;;;5092929;28;20043;-62
2023/09/28 11:12:44;;;;;;;0.00;0.00;;;19.80;99.90;;;;;;5094925;28;20052;-63
2023/09/28 11:15:14;;;;;;;0.43;0.43;;;19.90;99.90;;;;;;5094684;28;20094;-65
2023/09/28 11:17:40;;;;;;;0.40;0.40;;;19.40;99.90;;;;;;5094795;28;20415;-63
2023/09/28 11:20:11;;;;;;;1.35;0.63;;;19.60;99.90;;;;;;5094628;28;20052;-63
2023/09/28 11:22:37;;;;;;;0.17;0.17;;;19.70;99.90;;;;;;5093326;28;20434;-62
2023/09/28 11:25:03;;;;;;;0.30;0.28;;;19.40;99.90;;;;;;5094533;28;20044;-62
2023/09/28 11:27:29;;;;;;;0.50;0.50;;;19.50;99.90;;;;;;5093937;28;20109;-63
2023/09/28 11:29:58;;;;;;;2.65;0.75;;;19.20;99.90;;;;;;5094059;28;20075;-63
2023/09/28 11:32:24;;;;;;;0.90;0.20;;;19.30;99.90;;;;;;5091553;28;20044;-63
2023/09/28 11:34:51;;;;;;;0.38;0.30;;;19.30;99.90;;;;;;5094183;28;20112;-62
2023/09/28 11:37:17;;;;;;;0.85;0.47;;;19.30;99.90;;;;;;5094245;28;20067;-62
2023/09/28 11:39:43;;;;;;;0.10;0.10;;;19.10;99.90;;;;;;5094279;28;20481;-62
2023/09/28 11:42:09;;;;;;;0.95;0.52;;;19.30;99.90;;;;;;5094080;28;20051;-62
2023/09/28 11:44:36;;;;;;;3.25;0.95;;;19.50;99.90;;;;;;5094154;28;20051;-63
2023/09/28 11:47:05;;;;;;;15.88;0.90;;;19.10;99.90;;;;;;5094004;28;20148;-63
2023/09/28 11:49:31;;;;;;;0.10;0.10;;;19.30;99.90;;;;;;5092633;28;20399;-64
2023/09/28 11:51:56;;;;;;;0.52;0.47;;;19.60;99.90;;;;;;5093745;28;20052;-63
2023/09/28 11:54:22;;;;;;;0.25;0.25;;;19.00;99.90;;;;;;5094001;28;20059;-62
2023/09/28 11:56:49;;;;;;;1.42;1.02;;;19.40;99.90;;;;;;5093846;28;20132;-63
2023/09/28 11:59:15;;;;;;;0.10;0.10;;;19.20;99.90;;;;;;5093940;28;20048;-63
2023/09/28 12:01:45;;;;;;;0.43;0.40;;;19.10;99.90;;;;;;5093565;28;20502;-62
2023/09/28 12:04:11;;;;;;;0.30;0.30;;;19.10;99.90;;;;;;5093784;28;20058;-62
2023/09/28 12:06:38;;;;;;;0.17;0.17;;;19.10;99.90;;;;;;5093742;28;20048;-63
2023/09/28 12:09:06;;;;;;;0.10;0.10;;;19.10;99.90;;;;;;5093602;28;20051;-63
2023/09/28 12:11:33;;;;;;;1.13;0.70;;;19.20;99.90;;;;;;5093634;28;20044;-63
2023/09/28 12:13:59;;;;;;;0.20;0.20;;;18.90;99.90;;;;;;5093637;28;20133;-63
2023/09/28 12:16:26;;;;;;;1.65;0.30;;;19.20;99.90;;;;;;5093613;28;20138;-63
2023/09/28 12:18:51;;;;;;;0.65;0.65;;;19.50;99.90;;;;;;5093537;28;20047;-62
2023/09/28 12:21:17;;;;;;;0.90;0.77;;;19.20;99.90;;;;;;5093436;28;20102;-63
2023/09/28 12:23:43;;;;;;;0.43;0.20;;;19.50;99.90;;;;;;5093375;28;20121;-62
2023/09/28 12:26:10;;;;;;;0.08;0.08;;;19.60;99.90;;;;;;5093375;28;20056;-63
2023/09/28 12:28:37;;;;;;;0.80;0.30;;;19.10;99.90;;;;;;5093337;28;20047;-62
2023/09/28 12:31:04;;;;;;;0.68;0.63;;;19.20;99.90;;;;;;5093286;28;20048;-62
2023/09/28 12:33:30;;;;;;;0.65;0.65;;;19.00;99.90;;;;;;5092204;28;20097;-62
2023/09/28 12:35:58;;;;;;;0.57;0.40;;;19.30;99.90;;;;;;5093497;28;20040;-62
2023/09/28 12:38:24;;;;;;;1.63;0.65;;;19.50;99.90;;;;;;5092281;28;20062;-62
2023/09/28 12:40:49;;;;;;;0.20;0.20;;;19.50;99.90;;;;;;5093176;28;20500;-63
2023/09/28 12:43:16;;;;;;;0.10;0.10;;;19.30;99.90;;;;;;5092731;28;20051;-63
2023/09/28 12:45:43;;;;;;;0.43;0.43;;;19.60;99.90;;;;;;5093193;28;20127;-61
2023/09/28 12:48:17;;;;;;;0.20;0.20;;;19.40;99.90;;;;;;5093104;28;20048;-62
2023/09/28 12:50:44;;;;;;;0.57;0.57;;;19.60;99.90;;;;;;5091813;28;20137;-62
2023/09/28 12:53:10;;;;;;;1.60;1.05;;;19.50;99.90;;;;;;5092527;28;20044;-63